Time;durP1;ratioP1;P1;durP2;ratioP2;P2;SDS_P1;SDS_P2;PMS_P1;PMS_P2;Temp;Humidity;BMP_temperature;BMP_pressure;BME280_temperature;BME280_humidity;BME280_pressure;Samples;Min_cycle;Max_cycle;Signal;HPM_P1;HPM_P2
2023/01/21 00:01:08;;;;;;;21.53;11.80;;;0.00;56.20;;;;;;5008680;28;46422;-60
2023/01/21 00:03:33;;;;;;;20.23;11.83;;;-0.20;56.30;;;;;;5007057;28;46635;-61
2023/01/21 00:05:59;;;;;;;19.63;12.30;;;-0.30;56.60;;;;;;5004736;28;46342;-63
2023/01/21 00:08:26;;;;;;;20.63;11.93;;;-0.40;56.60;;;;;;5007739;28;46957;-61
2023/01/21 00:10:51;;;;;;;21.45;11.90;;;-0.40;56.60;;;;;;5003737;28;46586;-62
2023/01/21 00:13:17;;;;;;;23.10;10.73;;;-0.50;56.50;;;;;;5007958;28;46440;-63
2023/01/21 00:15:43;;;;;;;18.50;11.70;;;-0.50;56.50;;;;;;5006356;28;46331;-63
2023/01/21 00:18:08;;;;;;;19.23;11.50;;;-0.50;56.50;;;;;;5006524;28;46414;-62
2023/01/21 00:20:34;;;;;;;21.73;12.17;;;-0.50;56.30;;;;;;5007366;28;46409;-64
2023/01/21 00:23:00;;;;;;;25.37;12.80;;;-0.40;56.00;;;;;;5008054;28;46419;-63
2023/01/21 00:25:25;;;;;;;21.87;11.80;;;-0.40;55.70;;;;;;5005377;28;46451;-62
2023/01/21 00:27:51;;;;;;;25.00;12.20;;;-0.30;55.50;;;;;;5006793;28;46455;-62
2023/01/21 00:30:16;;;;;;;20.87;13.07;;;-0.20;55.40;;;;;;5008519;28;46314;-63
2023/01/21 00:32:42;;;;;;;32.13;13.50;;;-0.10;55.00;;;;;;5004848;28;46381;-62
2023/01/21 00:35:08;;;;;;;25.73;12.20;;;-0.10;54.80;;;;;;5006866;28;46663;-61
2023/01/21 00:37:34;;;;;;;20.98;11.85;;;-0.10;54.60;;;;;;5007882;28;46442;-61
2023/01/21 00:39:59;;;;;;;26.17;12.53;;;-0.10;54.60;;;;;;5005736;28;46411;-62
2023/01/21 00:42:26;;;;;;;21.80;11.87;;;-0.10;54.60;;;;;;5006164;28;46638;-63
2023/01/21 00:44:52;;;;;;;22.52;12.68;;;-0.10;54.80;;;;;;5003520;28;46392;-63
2023/01/21 00:47:18;;;;;;;21.80;11.87;;;-0.10;54.70;;;;;;5005520;28;47080;-62
2023/01/21 00:49:44;;;;;;;20.80;11.60;;;-0.10;54.70;;;;;;5006740;28;46421;-63
2023/01/21 00:52:09;;;;;;;18.30;11.50;;;-0.10;54.90;;;;;;5005802;28;46418;-62
2023/01/21 00:54:35;;;;;;;20.47;11.33;;;-0.20;54.90;;;;;;5006334;28;46600;-64
2023/01/21 00:57:00;;;;;;;21.30;12.67;;;-0.20;55.00;;;;;;5004703;28;46438;-62
2023/01/21 00:59:27;;;;;;;19.33;11.33;;;-0.30;55.10;;;;;;5008193;28;46403;-62
2023/01/21 01:01:53;;;;;;;17.08;10.88;;;-0.30;55.30;;;;;;5005166;28;46575;-62
2023/01/21 01:04:19;;;;;;;24.05;12.18;;;-0.40;55.40;;;;;;5006712;28;46570;-63
2023/01/21 01:06:45;;;;;;;17.70;10.27;;;-0.50;55.60;;;;;;5005912;28;46486;-63
2023/01/21 01:09:11;;;;;;;21.20;11.67;;;-0.60;55.80;;;;;;5006235;28;46450;-63
2023/01/21 01:11:37;;;;;;;16.05;10.57;;;-0.70;55.90;;;;;;5003183;28;46638;-62
2023/01/21 01:14:03;;;;;;;21.55;11.68;;;-0.80;56.10;;;;;;5006351;28;46369;-64
2023/01/21 01:16:29;;;;;;;15.93;10.52;;;-0.90;56.10;;;;;;5004016;28;46382;-60
2023/01/21 01:18:55;;;;;;;22.83;12.17;;;-0.90;56.20;;;;;;5005504;28;46387;-62
2023/01/21 01:21:21;;;;;;;18.23;10.17;;;-0.90;56.10;;;;;;5004732;28;46327;-60
2023/01/21 01:23:48;;;;;;;19.70;11.27;;;-0.90;55.60;;;;;;5007322;28;46565;-62
2023/01/21 01:26:16;;;;;;;26.90;12.70;;;-0.80;55.40;;;;;;5004046;28;46681;-62
2023/01/21 01:28:42;;;;;;;24.95;13.85;;;-0.80;55.40;;;;;;5017902;28;46517;-61
2023/01/21 01:31:11;;;;;;;20.00;12.55;;;-0.90;55.30;;;;;;5005226;28;46405;-61
2023/01/21 01:33:37;;;;;;;19.25;11.68;;;-0.80;55.50;;;;;;5014525;28;45978;-62
2023/01/21 01:36:09;;;;;;;19.23;11.80;;;-1.00;55.70;;;;;;5008458;28;47413;-62
2023/01/21 01:38:34;;;;;;;25.40;12.90;;;-1.00;55.60;;;;;;5000552;28;46684;-61
2023/01/21 01:41:01;;;;;;;29.17;13.30;;;-1.00;55.70;;;;;;5003764;28;45910;-62
2023/01/21 01:43:48;;;;;;;30.33;12.82;;;-1.10;56.00;;;;;;5004121;28;45937;-62
2023/01/21 01:46:13;;;;;;;27.13;13.48;;;-1.10;55.90;;;;;;5004804;28;48382;-62
2023/01/21 01:48:41;;;;;;;20.30;12.23;;;-1.10;55.60;;;;;;5005602;28;46470;-62
2023/01/21 01:51:08;;;;;;;26.13;12.43;;;-1.10;55.50;;;;;;5003928;28;45881;-63
2023/01/21 01:53:36;;;;;;;22.63;11.57;;;-1.00;55.50;;;;;;5004625;28;46421;-62
2023/01/21 01:56:02;;;;;;;24.08;12.95;;;-1.00;55.00;;;;;;5004798;28;46638;-62
2023/01/21 01:58:29;;;;;;;24.17;13.07;;;-0.90;55.00;;;;;;5003085;28;46405;-63
2023/01/21 02:00:55;;;;;;;24.13;12.90;;;-0.90;54.70;;;;;;5003900;28;46362;-62
2023/01/21 02:06:05;;;;;;;20.45;11.75;;;-0.80;54.50;;;;;;5000653;28;46744;-61
2023/01/21 02:08:33;;;;;;;24.80;12.83;;;-0.80;54.30;;;;;;5003712;28;46497;-63
2023/01/21 02:10:59;;;;;;;22.02;11.95;;;-0.70;54.20;;;;;;5003249;28;46389;-64
2023/01/21 02:13:27;;;;;;;23.98;13.82;;;-0.70;54.40;;;;;;5004988;28;46541;-63
2023/01/21 02:16:26;;;;;;;23.55;12.50;;;-0.70;54.10;;;;;;5004894;28;46431;-61
2023/01/21 02:19:22;;;;;;;21.40;11.82;;;-0.70;54.00;;;;;;5002949;28;46521;-62
2023/01/21 02:22:13;;;;;;;26.95;12.93;;;-0.70;54.20;;;;;;5004278;28;46386;-61
2023/01/21 02:24:57;;;;;;;28.58;12.85;;;-0.80;54.10;;;;;;5005970;28;46590;-63
2023/01/21 02:27:22;;;;;;;22.40;13.20;;;-0.80;54.10;;;;;;5003403;28;46300;-63
2023/01/21 02:30:09;;;;;;;23.40;13.10;;;-0.60;54.50;;;;;;5006314;28;46446;-62
2023/01/21 02:33:01;;;;;;;18.13;11.63;;;-0.80;54.40;;;;;;5004000;28;46413;-62
2023/01/21 02:35:42;;;;;;;20.73;12.10;;;-0.90;54.50;;;;;;5005308;28;46413;-63
2023/01/21 02:38:39;;;;;;;23.60;12.55;;;-0.90;54.50;;;;;;5001523;28;46449;-61
2023/01/21 02:41:31;;;;;;;27.85;13.77;;;-1.00;54.40;;;;;;5007646;28;46354;-62
2023/01/21 02:44:13;;;;;;;21.02;11.98;;;-1.00;54.50;;;;;;5004875;28;46417;-62
2023/01/21 02:46:54;;;;;;;23.33;12.68;;;-1.00;54.60;;;;;;5004024;28;46378;-63
2023/01/21 02:49:43;;;;;;;28.20;12.18;;;-1.10;54.60;;;;;;5005890;28;46374;-64
2023/01/21 02:52:20;;;;;;;19.75;12.40;;;-1.00;54.60;;;;;;5001520;28;46641;-63
2023/01/21 02:54:57;;;;;;;25.58;13.30;;;-1.00;54.40;;;;;;5005664;28;46858;-64
2023/01/21 02:57:50;;;;;;;19.83;12.02;;;-1.10;54.30;;;;;;5002878;28;46484;-63
2023/01/21 03:01:00;;;;;;;26.35;13.07;;;-1.10;54.50;;;;;;5003616;28;46445;-63
2023/01/21 03:03:50;;;;;;;22.63;13.30;;;-1.10;54.40;;;;;;5005623;28;46439;-63
2023/01/21 03:06:35;;;;;;;22.40;12.80;;;-1.00;54.20;;;;;;5005757;28;46490;-64
2023/01/21 03:09:33;;;;;;;24.48;13.07;;;-0.90;54.00;;;;;;5002062;28;46477;-64
2023/01/21 03:12:05;;;;;;;26.60;12.80;;;-0.90;53.80;;;;;;4993922;28;46518;-63
2023/01/21 03:17:40;;;;;;;24.73;12.65;;;-1.00;54.10;;;;;;5000273;28;46413;-63
2023/01/21 03:20:23;;;;;;;22.67;13.40;;;-1.00;54.00;;;;;;5007796;28;46350;-63
2023/01/21 03:22:55;;;;;;;30.52;12.85;;;-1.00;53.90;;;;;;5005745;28;46457;-62
2023/01/21 03:25:22;;;;;;;20.42;12.40;;;-1.00;54.00;;;;;;5006096;28;46641;-62
2023/01/21 03:27:50;;;;;;;30.70;12.98;;;-1.10;54.30;;;;;;5004414;28;46644;-62
2023/01/21 03:30:18;;;;;;;22.38;12.60;;;-1.10;54.40;;;;;;5005575;28;46443;-63
2023/01/21 03:32:49;;;;;;;25.35;13.10;;;-1.10;54.40;;;;;;5005596;28;46398;-62
2023/01/21 03:35:22;;;;;;;25.13;13.02;;;-1.20;54.70;;;;;;5005648;28;46394;-63
2023/01/21 03:37:57;;;;;;;22.00;12.90;;;-1.20;55.10;;;;;;5004172;28;46355;-62
2023/01/21 03:40:24;;;;;;;24.55;14.38;;;-1.40;55.60;;;;;;5006025;28;46443;-63
2023/01/21 03:42:51;;;;;;;25.15;14.13;;;-1.30;55.80;;;;;;5003844;28;47424;-62
2023/01/21 03:45:47;;;;;;;26.67;13.93;;;-1.20;55.20;;;;;;5005397;28;46436;-62
2023/01/21 03:48:20;;;;;;;25.25;13.90;;;-1.10;54.90;;;;;;5003134;28;46655;-64
2023/01/21 03:50:55;;;;;;;31.50;13.40;;;-1.10;54.90;;;;;;5003792;28;46309;-63
2023/01/21 03:53:21;;;;;;;26.48;14.68;;;-1.10;54.80;;;;;;5000977;28;46928;-63
2023/01/21 03:55:50;;;;;;;24.63;14.13;;;-1.10;55.20;;;;;;5003250;28;46478;-63
2023/01/21 03:58:15;;;;;;;25.80;13.95;;;-1.10;55.00;;;;;;5003504;28;46474;-63
2023/01/21 04:00:41;;;;;;;28.90;15.37;;;-1.10;56.10;;;;;;5006097;28;46757;-64
2023/01/21 04:03:06;;;;;;;25.83;14.17;;;-1.20;55.20;;;;;;5008071;28;47304;-63
2023/01/21 04:05:32;;;;;;;23.63;13.50;;;-1.10;55.20;;;;;;5004325;28;46420;-62
2023/01/21 04:07:58;;;;;;;30.23;14.00;;;-1.10;55.10;;;;;;5006725;28;46605;-63
2023/01/21 04:10:24;;;;;;;26.95;13.80;;;-1.10;54.90;;;;;;5006020;28;46524;-62
2023/01/21 04:12:49;;;;;;;25.03;14.10;;;-1.00;54.70;;;;;;5010704;28;46612;-62
2023/01/21 04:15:15;;;;;;;24.93;14.77;;;-1.10;55.00;;;;;;5008097;28;46404;-62
2023/01/21 04:17:41;;;;;;;33.63;14.83;;;-1.00;54.80;;;;;;5005922;28;46236;-62
2023/01/21 04:20:07;;;;;;;27.00;15.20;;;-1.00;55.80;;;;;;5007539;28;46373;-62
2023/01/21 04:22:33;;;;;;;26.90;14.02;;;-1.00;54.80;;;;;;5007456;28;47283;-61
2023/01/21 04:24:58;;;;;;;26.07;14.23;;;-1.00;54.90;;;;;;5007209;28;46686;-63
2023/01/21 04:27:24;;;;;;;25.03;13.10;;;-1.00;54.80;;;;;;5006248;28;46923;-61
2023/01/21 04:29:49;;;;;;;29.33;14.33;;;-1.00;55.00;;;;;;5006300;28;46055;-63
2023/01/21 04:32:15;;;;;;;25.50;14.33;;;-1.00;55.10;;;;;;5008046;28;47202;-63
2023/01/21 04:34:40;;;;;;;29.27;13.90;;;-1.00;54.90;;;;;;5005591;28;47126;-64
2023/01/21 04:37:06;;;;;;;24.77;13.77;;;-0.90;54.90;;;;;;5007391;28;47216;-62
2023/01/21 04:39:32;;;;;;;26.87;13.33;;;-1.00;55.10;;;;;;5006971;28;46575;-63
2023/01/21 04:41:57;;;;;;;26.23;13.37;;;-1.10;55.50;;;;;;5008344;28;47148;-63
2023/01/21 04:44:23;;;;;;;20.33;12.30;;;-1.20;55.80;;;;;;5007063;28;46370;-61
2023/01/21 04:46:50;;;;;;;24.15;12.57;;;-1.20;55.90;;;;;;5006982;28;46426;-63
2023/01/21 04:49:15;;;;;;;27.70;13.23;;;-1.30;55.80;;;;;;5007176;28;46671;-63
2023/01/21 04:51:41;;;;;;;24.90;13.70;;;-1.40;56.30;;;;;;5009340;28;46417;-63
2023/01/21 04:54:09;;;;;;;25.60;13.97;;;-1.50;56.60;;;;;;5005534;28;46441;-63
2023/01/21 04:56:34;;;;;;;23.85;13.13;;;-1.30;56.60;;;;;;5006404;28;46505;-64
2023/01/21 04:59:00;;;;;;;23.07;12.30;;;-1.30;56.40;;;;;;5008814;28;46572;-63
2023/01/21 05:01:25;;;;;;;22.07;12.43;;;-1.30;56.20;;;;;;5006285;28;46430;-61
2023/01/21 05:03:51;;;;;;;28.63;13.30;;;-1.30;56.10;;;;;;5006709;28;46477;-63
2023/01/21 05:06:16;;;;;;;25.40;13.10;;;-1.40;56.50;;;;;;5007817;28;46488;-63
2023/01/21 05:08:42;;;;;;;26.83;13.50;;;-1.40;56.50;;;;;;5006838;28;45923;-63
2023/01/21 05:11:08;;;;;;;23.83;13.40;;;-1.40;56.40;;;;;;5006024;28;46501;-64
2023/01/21 05:13:34;;;;;;;26.15;12.95;;;-1.40;56.40;;;;;;5005317;28;46382;-63
2023/01/21 05:16:06;;;;;;;24.60;13.60;;;-1.40;56.80;;;;;;5007687;28;46291;-63
2023/01/21 05:18:32;;;;;;;27.05;14.32;;;-1.50;56.90;;;;;;5004985;28;46481;-63
2023/01/21 05:20:58;;;;;;;25.80;10.90;;;-1.50;57.10;;;;;;5007880;28;47293;-63
2023/01/21 05:23:23;;;;;;;28.60;12.50;;;-1.50;57.50;;;;;;5007617;28;46526;-61
2023/01/21 05:25:49;;;;;;;24.37;12.70;;;-1.70;58.50;;;;;;5007035;28;46379;-64
2023/01/21 05:28:14;;;;;;;25.77;13.13;;;-1.70;58.90;;;;;;5004919;28;46746;-62
2023/01/21 05:30:40;;;;;;;30.17;14.07;;;-1.70;59.10;;;;;;5004994;28;46323;-63
2023/01/21 05:33:05;;;;;;;24.50;12.43;;;-1.70;59.20;;;;;;5005180;28;46350;-62
2023/01/21 05:35:34;;;;;;;27.03;12.13;;;-1.70;59.20;;;;;;5006686;28;46317;-63
2023/01/21 05:38:00;;;;;;;26.15;13.90;;;-1.70;59.60;;;;;;5005618;28;46662;-62
2023/01/21 05:40:25;;;;;;;27.57;12.80;;;-1.70;59.80;;;;;;5004984;28;46445;-63
2023/01/21 05:42:51;;;;;;;31.02;13.45;;;-1.70;59.90;;;;;;5006369;28;46692;-63
2023/01/21 05:45:17;;;;;;;23.60;12.60;;;-1.60;59.50;;;;;;5004770;28;46456;-63
2023/01/21 05:47:42;;;;;;;22.90;13.40;;;-1.50;59.40;;;;;;5004703;28;46506;-63
2023/01/21 05:50:09;;;;;;;28.57;14.00;;;-1.60;59.40;;;;;;5005305;28;46426;-63
2023/01/21 05:52:35;;;;;;;28.83;13.40;;;-1.60;59.70;;;;;;5006402;28;46358;-64
2023/01/21 05:55:01;;;;;;;26.87;13.53;;;-1.70;60.00;;;;;;5007409;28;45779;-63
2023/01/21 05:57:27;;;;;;;27.97;13.13;;;-1.70;60.10;;;;;;5005712;28;46352;-63
2023/01/21 05:59:52;;;;;;;24.40;13.07;;;-1.70;60.10;;;;;;5004834;28;47809;-64
2023/01/21 06:02:18;;;;;;;25.60;14.00;;;-1.70;60.20;;;;;;5004445;28;46406;-62
2023/01/21 06:04:43;;;;;;;30.20;13.70;;;-1.70;60.10;;;;;;5006039;28;46323;-62
2023/01/21 06:07:09;;;;;;;32.43;15.67;;;-1.60;60.00;;;;;;5002779;28;46607;-63
2023/01/21 06:09:34;;;;;;;30.30;14.30;;;-1.60;59.90;;;;;;5005431;28;47078;-64
2023/01/21 06:12:00;;;;;;;31.73;15.00;;;-1.50;59.50;;;;;;5006191;28;46358;-64
2023/01/21 06:14:26;;;;;;;34.00;14.10;;;-1.50;59.30;;;;;;5005973;28;46437;-63
2023/01/21 06:16:51;;;;;;;31.37;14.83;;;-1.50;59.20;;;;;;5004688;28;46675;-63
2023/01/21 06:19:17;;;;;;;30.63;13.30;;;-1.50;59.20;;;;;;5006839;28;46401;-63
2023/01/21 06:21:42;;;;;;;29.57;14.20;;;-1.50;59.30;;;;;;5003851;28;46485;-61
2023/01/21 06:24:08;;;;;;;32.37;13.90;;;-1.50;59.60;;;;;;5006517;28;46493;-63
2023/01/21 06:26:34;;;;;;;31.00;14.60;;;-1.60;59.70;;;;;;5003601;28;46694;-63
2023/01/21 06:28:59;;;;;;;33.83;15.23;;;-1.60;59.80;;;;;;5004695;28;47246;-61
2023/01/21 06:31:25;;;;;;;33.00;14.73;;;-1.50;59.60;;;;;;5004165;28;46396;-63
2023/01/21 06:33:51;;;;;;;34.17;16.57;;;-1.50;59.50;;;;;;5006953;28;46601;-64
2023/01/21 06:36:16;;;;;;;41.83;21.00;;;-1.50;59.60;;;;;;5004830;28;46408;-64
2023/01/21 06:38:44;;;;;;;63.03;25.50;;;-1.40;59.20;;;;;;5010512;28;46554;-63
2023/01/21 06:41:12;;;;;;;48.50;19.20;;;-1.50;59.30;;;;;;5004606;28;46780;-62
2023/01/21 06:43:40;;;;;;;45.47;19.75;;;-1.50;59.70;;;;;;5005064;28;46888;-64
2023/01/21 06:46:19;;;;;;;82.03;33.85;;;-1.50;59.90;;;;;;5003378;28;46413;-65
2023/01/21 06:48:45;;;;;;;87.22;33.75;;;-1.60;60.00;;;;;;5007163;28;47032;-63
2023/01/21 06:51:11;;;;;;;42.97;21.30;;;-1.60;60.00;;;;;;5005136;28;46504;-62
2023/01/21 06:53:36;;;;;;;83.13;31.47;;;-1.60;60.00;;;;;;5003730;28;46659;-65
2023/01/21 06:56:02;;;;;;;131.43;47.20;;;-1.60;60.00;;;;;;5002521;28;46444;-63
2023/01/21 06:58:27;;;;;;;68.17;28.87;;;-1.60;60.00;;;;;;5002930;28;47323;-61
2023/01/21 07:00:56;;;;;;;92.60;35.03;;;-1.70;60.30;;;;;;5006121;28;45830;-61
2023/01/21 07:03:22;;;;;;;66.25;26.63;;;-1.70;60.50;;;;;;5005676;28;45800;-61
2023/01/21 07:05:47;;;;;;;43.63;17.40;;;-1.70;60.70;;;;;;5005258;28;46655;-62
2023/01/21 07:08:13;;;;;;;41.47;19.27;;;-1.60;60.50;;;;;;5002945;28;46382;-61
2023/01/21 07:10:38;;;;;;;64.43;30.10;;;-1.50;60.40;;;;;;5005681;28;46611;-63
2023/01/21 07:13:04;;;;;;;52.83;20.37;;;-1.60;60.30;;;;;;5005182;28;46486;-62
2023/01/21 07:15:30;;;;;;;47.23;19.90;;;-1.60;60.50;;;;;;5005511;28;46513;-62
2023/01/21 07:17:56;;;;;;;41.50;21.63;;;-1.70;60.70;;;;;;5001910;28;47086;-63
2023/01/21 07:20:21;;;;;;;34.55;17.42;;;-1.60;60.90;;;;;;5004910;28;46789;-62
2023/01/21 07:22:47;;;;;;;30.53;16.37;;;-1.70;61.50;;;;;;5006552;28;46386;-64
2023/01/21 07:25:13;;;;;;;28.27;13.30;;;-1.60;61.80;;;;;;5006247;28;46374;-63
2023/01/21 07:27:40;;;;;;;34.93;17.47;;;-1.60;61.60;;;;;;5003757;28;47415;-62
2023/01/21 07:30:06;;;;;;;31.00;14.40;;;-1.50;61.50;;;;;;5003109;28;46673;-63
2023/01/21 07:32:32;;;;;;;31.75;15.40;;;-1.50;61.20;;;;;;5006731;28;46549;-63
2023/01/21 07:34:57;;;;;;;36.13;16.23;;;-1.50;61.10;;;;;;5008464;28;46615;-63
2023/01/21 07:37:23;;;;;;;25.53;13.93;;;-1.40;61.20;;;;;;5008232;28;46389;-64
2023/01/21 07:39:48;;;;;;;29.63;12.93;;;-1.30;61.00;;;;;;5007372;28;46539;-63
2023/01/21 07:42:14;;;;;;;27.40;12.67;;;-1.20;60.80;;;;;;5005267;28;46481;-63
2023/01/21 07:44:40;;;;;;;29.30;14.60;;;-1.10;60.50;;;;;;5007878;28;46544;-63
2023/01/21 07:47:05;;;;;;;28.87;13.93;;;-0.90;60.10;;;;;;5009213;28;46444;-61
2023/01/21 07:49:31;;;;;;;39.03;21.23;;;-0.80;60.00;;;;;;5006561;28;46476;-62
2023/01/21 07:51:57;;;;;;;28.17;15.67;;;-0.70;59.90;;;;;;5005168;28;46553;-61
2023/01/21 07:54:23;;;;;;;34.63;20.08;;;-0.60;60.20;;;;;;5007712;28;46533;-63
2023/01/21 07:56:48;;;;;;;33.80;15.90;;;-0.60;60.20;;;;;;5005216;28;47046;-64
2023/01/21 07:59:14;;;;;;;34.63;16.60;;;-0.70;60.60;;;;;;5006125;28;46465;-63
2023/01/21 08:01:40;;;;;;;37.63;17.00;;;-0.70;60.80;;;;;;5006388;28;46430;-63
2023/01/21 08:04:06;;;;;;;34.63;16.00;;;-0.60;60.40;;;;;;5007210;28;46385;-62
2023/01/21 08:06:32;;;;;;;31.55;14.80;;;-0.50;60.10;;;;;;5007188;28;46364;-62
2023/01/21 08:08:57;;;;;;;27.47;14.17;;;-0.60;60.00;;;;;;5006487;28;46430;-61
2023/01/21 08:11:23;;;;;;;27.70;13.40;;;-0.70;60.00;;;;;;5006312;28;45869;-61
2023/01/21 08:13:49;;;;;;;28.13;13.00;;;-0.60;60.10;;;;;;5007484;28;46604;-64
2023/01/21 08:16:15;;;;;;;33.50;11.82;;;-0.70;60.00;;;;;;5006281;28;47065;-60
2023/01/21 08:18:40;;;;;;;29.83;13.40;;;-0.70;60.30;;;;;;5007747;28;46380;-61
2023/01/21 08:21:06;;;;;;;32.37;12.67;;;-0.70;60.30;;;;;;5007861;28;46612;-63
2023/01/21 08:23:32;;;;;;;29.63;13.60;;;-0.60;60.10;;;;;;5008046;28;46550;-62
2023/01/21 08:26:02;;;;;;;28.67;13.70;;;-0.50;60.00;;;;;;5006368;28;46362;-62
2023/01/21 08:28:27;;;;;;;22.10;10.20;;;-0.50;59.80;;;;;;5008638;28;47521;-63
2023/01/21 08:30:53;;;;;;;28.60;14.67;;;-0.50;59.70;;;;;;5008440;28;46537;-63
2023/01/21 08:33:19;;;;;;;24.63;14.50;;;-0.40;59.90;;;;;;5006537;28;46438;-63
2023/01/21 08:35:44;;;;;;;31.30;14.67;;;-0.30;59.40;;;;;;5006241;28;46983;-62
2023/01/21 08:38:10;;;;;;;21.83;11.07;;;-0.20;59.10;;;;;;5006087;28;46488;-61
2023/01/21 08:40:35;;;;;;;26.20;13.23;;;0.00;59.10;;;;;;5006162;28;46573;-60
2023/01/21 08:43:03;;;;;;;30.40;10.83;;;-0.10;59.00;;;;;;5006413;28;46428;-63
2023/01/21 08:45:29;;;;;;;22.45;11.48;;;0.10;58.60;;;;;;5006306;28;47371;-62
2023/01/21 08:47:55;;;;;;;18.75;9.35;;;0.00;58.70;;;;;;5003987;28;46557;-63
2023/01/21 08:50:21;;;;;;;22.23;9.18;;;0.00;58.60;;;;;;5006942;28;46370;-62
2023/01/21 08:52:51;;;;;;;18.30;10.23;;;-0.20;59.10;;;;;;5007804;28;46390;-62
2023/01/21 08:55:17;;;;;;;18.75;10.20;;;0.00;59.20;;;;;;5004684;28;46875;-63
2023/01/21 08:57:42;;;;;;;19.63;10.80;;;0.00;58.80;;;;;;5005331;28;46489;-61
2023/01/21 09:00:08;;;;;;;29.90;11.93;;;0.00;58.90;;;;;;5005386;28;47689;-63
2023/01/21 09:02:34;;;;;;;27.40;12.43;;;0.10;58.80;;;;;;5004551;28;46445;-60
2023/01/21 09:05:00;;;;;;;21.97;11.33;;;0.20;58.70;;;;;;5005064;28;46406;-64
2023/01/21 09:07:25;;;;;;;22.60;10.77;;;0.20;58.30;;;;;;5003782;28;46442;-62
2023/01/21 09:09:51;;;;;;;24.63;11.80;;;0.30;58.20;;;;;;5005140;28;46453;-61
2023/01/21 09:12:16;;;;;;;24.57;11.00;;;0.30;58.20;;;;;;5006605;28;46490;-63
2023/01/21 09:14:42;;;;;;;26.50;11.00;;;0.20;58.40;;;;;;5004806;28;46464;-64
2023/01/21 09:17:09;;;;;;;27.33;12.67;;;0.10;58.50;;;;;;5005941;28;45823;-63
2023/01/21 09:19:34;;;;;;;22.13;10.07;;;0.20;58.50;;;;;;5007069;28;46478;-64
2023/01/21 09:22:00;;;;;;;22.87;11.23;;;0.40;58.20;;;;;;5007778;28;46512;-62
2023/01/21 09:24:25;;;;;;;18.50;9.33;;;0.30;57.80;;;;;;5004976;28;46515;-64
2023/01/21 09:26:51;;;;;;;18.57;10.13;;;0.20;57.80;;;;;;5005564;28;46457;-64
2023/01/21 09:29:16;;;;;;;21.57;10.87;;;0.20;57.90;;;;;;5004065;28;46483;-63
2023/01/21 09:31:42;;;;;;;22.20;10.10;;;0.30;57.80;;;;;;5005980;28;46434;-64
2023/01/21 09:34:09;;;;;;;27.53;11.47;;;0.30;57.90;;;;;;5005174;28;46978;-62
2023/01/21 09:36:35;;;;;;;18.98;10.38;;;0.30;57.70;;;;;;5007126;28;46418;-62
2023/01/21 09:39:01;;;;;;;21.30;10.40;;;0.20;57.70;;;;;;5004962;28;46422;-62
2023/01/21 09:41:29;;;;;;;24.40;11.37;;;0.20;57.90;;;;;;5007165;28;46325;-62
2023/01/21 09:44:07;;;;;;;20.58;11.07;;;0.20;57.90;;;;;;5005141;28;46442;-62
2023/01/21 09:46:45;;;;;;;23.73;10.93;;;0.20;57.80;;;;;;5004844;28;46706;-62
2023/01/21 09:49:51;;;;;;;24.88;12.02;;;0.30;57.60;;;;;;5003468;28;46403;-63
2023/01/21 09:52:36;;;;;;;21.83;11.00;;;0.40;57.20;;;;;;4995314;28;46646;-63
2023/01/21 09:55:04;;;;;;;22.42;11.65;;;0.30;57.20;;;;;;5002345;28;46432;-63
2023/01/21 09:57:29;;;;;;;26.60;10.80;;;0.40;57.20;;;;;;5004165;28;46394;-61
2023/01/21 09:59:58;;;;;;;19.60;10.20;;;0.30;57.00;;;;;;5005268;28;46414;-62
2023/01/21 10:03:01;;;;;;;20.00;11.00;;;0.20;57.10;;;;;;5005112;28;46834;-62
2023/01/21 10:05:51;;;;;;;20.92;10.63;;;0.20;57.10;;;;;;4997652;28;46516;-62
2023/01/21 10:08:19;;;;;;;22.83;10.52;;;0.20;57.10;;;;;;5000237;28;46631;-63
2023/01/21 10:11:02;;;;;;;22.15;10.57;;;0.30;57.20;;;;;;4999801;28;46806;-64
2023/01/21 10:13:59;;;;;;;25.77;10.80;;;0.30;57.20;;;;;;5001082;28;45804;-63
2023/01/21 10:16:45;;;;;;;27.65;10.93;;;0.40;57.10;;;;;;5001241;28;46540;-64
2023/01/21 10:19:17;;;;;;;20.27;11.90;;;0.50;57.20;;;;;;4998322;28;46475;-62
2023/01/21 10:21:56;;;;;;;20.80;11.80;;;0.60;56.70;;;;;;4999233;28;46396;-64
2023/01/21 10:24:40;;;;;;;20.85;11.25;;;0.70;56.30;;;;;;5001459;28;46473;-63
2023/01/21 10:27:13;;;;;;;26.25;11.50;;;0.80;56.30;;;;;;5000270;28;47032;-62
2023/01/21 10:29:40;;;;;;;21.58;11.63;;;0.90;56.10;;;;;;5001857;28;47079;-63
2023/01/21 10:32:12;;;;;;;19.10;10.65;;;1.00;55.20;;;;;;5002378;28;46445;-62
2023/01/21 10:34:48;;;;;;;20.38;10.60;;;1.10;55.00;;;;;;5006282;28;45835;-62
2023/01/21 10:37:35;;;;;;;25.02;11.63;;;1.30;55.00;;;;;;5000317;28;46378;-63
2023/01/21 10:40:41;;;;;;;23.75;13.05;;;1.30;54.80;;;;;;4999623;28;46565;-63
2023/01/21 10:43:25;;;;;;;22.65;10.43;;;1.20;55.00;;;;;;4998883;28;46398;-62
2023/01/21 10:46:05;;;;;;;26.27;12.15;;;1.20;55.30;;;;;;4998407;28;46448;-62
2023/01/21 10:48:48;;;;;;;27.85;10.93;;;1.10;55.40;;;;;;4999362;28;46376;-62
2023/01/21 10:51:19;;;;;;;24.23;11.50;;;1.10;55.40;;;;;;4999965;28;46455;-62
2023/01/21 10:54:09;;;;;;;23.65;10.98;;;1.20;55.10;;;;;;4998163;28;45900;-62
2023/01/21 10:56:59;;;;;;;21.17;11.18;;;1.40;54.70;;;;;;5003198;28;46321;-62
2023/01/21 10:59:30;;;;;;;25.60;12.30;;;1.30;54.00;;;;;;5000335;28;46491;-62
2023/01/21 11:02:32;;;;;;;23.80;11.27;;;1.30;54.20;;;;;;5000454;28;46770;-63
2023/01/21 11:05:01;;;;;;;26.85;13.27;;;1.40;54.00;;;;;;4998228;28;46512;-65
2023/01/21 11:07:38;;;;;;;23.13;11.65;;;1.40;53.80;;;;;;5000379;28;46474;-63
2023/01/21 11:10:05;;;;;;;17.25;9.82;;;1.30;54.00;;;;;;5002993;28;46383;-65
2023/01/21 11:12:31;;;;;;;16.00;8.98;;;1.40;54.10;;;;;;5004566;28;46553;-64
2023/01/21 11:14:59;;;;;;;24.15;10.15;;;1.40;53.90;;;;;;5005150;28;46697;-63
2023/01/21 11:17:35;;;;;;;19.75;10.05;;;1.40;54.00;;;;;;5004438;28;46465;-63
2023/01/21 11:20:05;;;;;;;19.20;10.15;;;1.30;53.90;;;;;;5004476;28;46999;-63
2023/01/21 11:22:31;;;;;;;20.95;9.60;;;1.30;53.80;;;;;;5008771;28;46501;-63
2023/01/21 11:24:58;;;;;;;18.73;9.40;;;1.20;53.90;;;;;;5002988;28;46824;-64
2023/01/21 11:27:27;;;;;;;21.92;10.75;;;1.20;53.70;;;;;;5004732;28;46425;-62
2023/01/21 11:29:52;;;;;;;25.13;9.43;;;1.20;53.60;;;;;;5004027;28;46401;-62
2023/01/21 11:32:26;;;;;;;18.60;8.60;;;1.20;53.50;;;;;;5005553;28;45807;-63
2023/01/21 11:35:19;;;;;;;22.42;9.50;;;1.00;53.00;;;;;;5005578;28;46394;-63
2023/01/21 11:37:45;;;;;;;20.75;10.13;;;1.00;53.50;;;;;;5005236;28;46467;-63
2023/01/21 11:40:20;;;;;;;19.70;9.77;;;0.90;53.70;;;;;;5003974;28;46441;-64
2023/01/21 11:42:52;;;;;;;34.55;16.25;;;1.00;53.70;;;;;;5006099;28;46709;-64
2023/01/21 11:45:36;;;;;;;35.80;16.52;;;0.90;53.40;;;;;;5004103;28;46548;-63
2023/01/21 11:48:19;;;;;;;20.13;9.98;;;0.90;53.40;;;;;;5005202;28;46862;-64
2023/01/21 11:50:44;;;;;;;22.77;10.40;;;0.90;53.30;;;;;;5006646;28;46532;-63
2023/01/21 11:53:17;;;;;;;20.60;10.23;;;1.10;53.10;;;;;;5004571;28;47324;-63
2023/01/21 11:55:53;;;;;;;25.13;11.50;;;1.10;53.00;;;;;;5006238;28;46596;-63
2023/01/21 11:58:30;;;;;;;23.08;10.07;;;1.10;53.00;;;;;;5004064;28;46422;-65
2023/01/21 12:00:58;;;;;;;25.48;12.50;;;1.00;52.90;;;;;;5005113;28;46605;-63
2023/01/21 12:03:30;;;;;;;22.63;10.57;;;0.90;53.10;;;;;;5002409;28;46438;-65
2023/01/21 12:05:56;;;;;;;31.25;12.60;;;1.00;53.20;;;;;;5003414;28;46509;-63
2023/01/21 12:08:27;;;;;;;21.17;11.00;;;1.00;53.10;;;;;;5004708;28;46632;-64
2023/01/21 12:10:56;;;;;;;21.35;8.75;;;1.20;53.30;;;;;;5003182;28;46746;-63
2023/01/21 12:13:22;;;;;;;17.67;8.95;;;1.30;52.80;;;;;;5004228;28;46398;-63
2023/01/21 12:16:13;;;;;;;18.65;9.90;;;1.30;52.20;;;;;;5004264;28;46434;-63
2023/01/21 12:18:57;;;;;;;25.55;11.98;;;1.50;52.20;;;;;;5003497;28;46327;-64
2023/01/21 12:21:44;;;;;;;20.13;10.05;;;1.60;52.20;;;;;;5003702;28;46943;-63
2023/01/21 12:24:42;;;;;;;24.65;9.40;;;2.00;51.30;;;;;;4999921;28;46592;-64
2023/01/21 12:27:50;;;;;;;20.42;9.75;;;1.90;51.00;;;;;;5003298;28;46526;-64
2023/01/21 12:30:37;;;;;;;16.98;9.07;;;1.90;50.70;;;;;;4987890;28;46501;-64
2023/01/21 12:33:20;;;;;;;24.02;10.77;;;1.70;51.40;;;;;;5000969;28;47029;-64
2023/01/21 12:35:55;;;;;;;19.40;9.90;;;1.40;51.80;;;;;;5001319;28;46817;-62
2023/01/21 12:38:26;;;;;;;15.85;8.93;;;1.40;52.20;;;;;;5002250;28;46331;-63
2023/01/21 12:41:17;;;;;;;19.55;9.48;;;1.20;52.40;;;;;;5002731;28;46469;-63
2023/01/21 12:43:49;;;;;;;21.63;10.10;;;1.10;52.60;;;;;;5000117;28;47235;-62
2023/01/21 12:46:21;;;;;;;21.45;9.75;;;1.10;52.90;;;;;;5001564;28;46502;-62
2023/01/21 12:48:56;;;;;;;18.35;10.65;;;1.20;52.80;;;;;;5001898;28;46492;-62
2023/01/21 12:51:29;;;;;;;20.20;10.23;;;1.30;52.60;;;;;;5001837;28;46025;-63
2023/01/21 12:54:13;;;;;;;22.90;10.75;;;1.40;52.50;;;;;;5003783;28;47282;-61